South Arkansas Regional At Goodwin Field
KELD : now visible

Airfield :











YOU CAN JOIN US ON...

 
LOGIN :

Register | Disclaimer

   EN    FR    IT 

 









Legend :    VFR   Marginal VFR   IFR   Intensive IFR   Very Intensive IFR
Visi :
Ceiling :
>= 8 km
>= 3000ft
5 to 8 km
1000 to 3000 ft
1500m to 5 km
500 to 1000 ft
800 to 1500m
200 to 500 ft
< 800m
< 200 ft
Symbols :   Thunderstorms  Fog  Heavy snow  Heavy precipitations  Wind > 20 kt






- Airport Elevation : 277 ft
- IATA code : ELD


KELD - South Arkansas Regional At Goodwin Field

CURRENT METAR :
  • 151753Z AUTO VRB06KT 10SM CLR 12/01 A3038 RMK AO2 SLP288 I6000 T01220011 10128 21017 58013

EXPIRED METARs :
  • 151653Z AUTO VRB03KT 10SM CLR 11/02 A3041 RMK AO2 SLP298 T01060017
  • 151553Z AUTO 04004KT 10SM CLR 08/02 A3042 RMK AO2 SLP302 T00830022
  • 151453Z AUTO 01005KT 10SM CLR 04/02 A3042 RMK AO2 SLP302 I3000 T00440022 51014

TAF KELD
Valid from the 15 at 18:00 until the 16 at 18:00 UTC


151722Z 1518/1618 02005KT P6SM SKC
FM160000 00000KT P6SM SKC
TEMPO 1609/1613 1/2SM FZFG VV002
FM161300 03005KT P6SM SKC
TEMPO 1613/1614 00000KT BKN010



MET'MAP, your aeronautical weather chart ! - Copyright ORBIFLY December 2007 - Disclaimer

ORBIFLY MET'MAP TEAM :

Programming & Development : Alexandra Zaïnal
Concept & Development : Baudouin d'Aumeries
Co-Development & Prog : Marc-Olivier Méhu
Technical & hardware support : Manuel Goepfert

Contact : metmap@orbifly.com




SOURCES & CREDITS :

   NOAA       Earth
Advisory